Time;durP1;ratioP1;P1;durP2;ratioP2;P2;SDS_P1;SDS_P2;PMS_P1;PMS_P2;Temp;Humidity;BMP_temperature;BMP_pressure;BME280_temperature;BME280_humidity;BME280_pressure;Samples;Min_cycle;Max_cycle;Signal;HPM_P1;HPM_P2
2023/08/22 00:00:45;;;;;;;2.95;1.80;;;22.70;99.90;;;;;;4979230;28;20214;-71
2023/08/22 00:03:12;;;;;;;4.57;1.92;;;22.60;99.90;;;;;;4975472;28;20207;-72
2023/08/22 00:05:37;;;;;;;5.40;2.22;;;22.70;99.90;;;;;;4972900;28;20313;-70
2023/08/22 00:08:06;;;;;;;6.40;2.22;;;22.60;99.90;;;;;;4973044;28;20253;-72
2023/08/22 00:10:33;;;;;;;4.97;1.90;;;22.50;99.90;;;;;;4970918;28;20179;-73
2023/08/22 00:12:59;;;;;;;4.25;1.75;;;22.40;99.90;;;;;;4972267;28;20261;-72
2023/08/22 00:15:24;;;;;;;4.85;2.03;;;22.30;99.90;;;;;;4971459;28;20774;-72
2023/08/22 00:17:50;;;;;;;5.97;1.95;;;22.40;99.90;;;;;;4968951;28;20202;-72
2023/08/22 00:20:16;;;;;;;5.20;2.35;;;22.40;99.90;;;;;;4977059;28;20234;-72
2023/08/22 00:22:42;;;;;;;5.18;2.08;;;22.40;99.90;;;;;;4985252;28;20206;-72
2023/08/22 00:25:09;;;;;;;5.88;2.10;;;22.30;99.90;;;;;;4964795;28;20210;-72
2023/08/22 00:27:35;;;;;;;6.40;2.33;;;22.30;99.90;;;;;;4973075;28;20210;-72
2023/08/22 00:30:01;;;;;;;4.82;2.10;;;22.40;99.90;;;;;;4963683;28;20218;-72
2023/08/22 00:32:27;;;;;;;5.75;2.20;;;22.40;99.90;;;;;;4964977;28;20350;-72
2023/08/22 00:34:53;;;;;;;9.68;2.70;;;22.40;99.90;;;;;;4976407;28;20305;-72
2023/08/22 00:37:19;;;;;;;6.80;2.30;;;22.50;99.90;;;;;;4975499;28;20182;-72
2023/08/22 00:39:45;;;;;;;6.40;2.08;;;22.50;99.90;;;;;;4972544;28;20832;-72
2023/08/22 00:42:10;;;;;;;4.60;2.25;;;22.40;99.90;;;;;;4978553;28;20206;-71
2023/08/22 00:44:36;;;;;;;4.63;1.80;;;22.30;99.90;;;;;;4986841;28;20601;-71
2023/08/22 00:47:02;;;;;;;4.25;2.30;;;22.30;99.90;;;;;;4981892;28;20282;-72
2023/08/22 00:49:28;;;;;;;6.07;2.17;;;22.20;99.90;;;;;;4976682;28;20213;-72
2023/08/22 00:51:56;;;;;;;5.72;2.40;;;22.10;99.90;;;;;;4991276;28;20244;-72
2023/08/22 00:54:24;;;;;;;5.47;2.03;;;22.20;99.90;;;;;;4971671;28;20215;-72
2023/08/22 00:56:50;;;;;;;8.80;2.65;;;22.20;99.90;;;;;;4970018;28;20206;-72
2023/08/22 00:59:16;;;;;;;7.10;2.10;;;22.20;99.90;;;;;;4979696;28;20207;-72
2023/08/22 01:01:42;;;;;;;4.25;2.28;;;22.10;99.90;;;;;;4968911;28;20284;-72
2023/08/22 01:04:07;;;;;;;4.05;1.77;;;21.90;99.90;;;;;;4964127;28;20278;-72
2023/08/22 01:06:51;;;;;;;5.78;2.42;;;22.00;99.90;;;;;;4966110;28;20305;-72
2023/08/22 01:09:32;;;;;;;3.78;1.80;;;21.80;99.90;;;;;;4961999;28;20214;-72
2023/08/22 01:12:10;;;;;;;6.05;2.22;;;21.80;99.90;;;;;;4977549;28;20254;-72
2023/08/22 01:14:43;;;;;;;4.82;2.00;;;21.90;99.90;;;;;;4989450;28;20213;-72
2023/08/22 01:17:11;;;;;;;4.45;1.85;;;22.00;99.90;;;;;;4972030;28;20249;-73
2023/08/22 01:19:37;;;;;;;6.13;2.40;;;21.90;99.90;;;;;;4979134;28;20295;-71
2023/08/22 01:22:03;;;;;;;3.10;1.77;;;22.10;99.90;;;;;;4991506;28;20256;-72
2023/08/22 01:24:28;;;;;;;4.88;2.22;;;22.00;99.90;;;;;;4970996;28;20250;-72
2023/08/22 01:26:54;;;;;;;6.10;2.13;;;21.90;99.90;;;;;;4985052;28;20716;-72
2023/08/22 01:29:41;;;;;;;5.10;1.95;;;22.00;99.90;;;;;;4976658;28;20226;-72
2023/08/22 01:32:13;;;;;;;4.00;1.90;;;22.00;99.90;;;;;;4968309;28;20246;-72
2023/08/22 01:34:40;;;;;;;4.53;2.20;;;21.90;99.90;;;;;;4967823;28;21088;-71
2023/08/22 01:37:09;;;;;;;3.53;1.95;;;22.00;99.90;;;;;;4970477;28;20233;-72
2023/08/22 01:39:37;;;;;;;6.90;2.08;;;22.00;99.90;;;;;;4966716;28;20567;-72
2023/08/22 01:42:04;;;;;;;6.43;1.95;;;21.90;99.90;;;;;;4966377;28;20207;-72
2023/08/22 01:44:30;;;;;;;5.22;1.88;;;21.90;99.90;;;;;;4964207;28;20226;-71
2023/08/22 01:46:55;;;;;;;6.53;2.20;;;21.90;99.90;;;;;;4972468;28;20197;-71
2023/08/22 01:49:21;;;;;;;4.53;2.08;;;21.90;99.90;;;;;;4970604;28;20260;-71
2023/08/22 01:51:47;;;;;;;5.35;2.00;;;21.80;99.90;;;;;;4981200;28;20178;-71
2023/08/22 01:54:13;;;;;;;2.78;1.65;;;21.90;99.90;;;;;;4971517;28;20740;-73
2023/08/22 01:56:39;;;;;;;4.05;1.98;;;21.90;99.90;;;;;;4975533;28;20341;-70
2023/08/22 01:59:04;;;;;;;3.85;2.17;;;21.90;99.90;;;;;;4979862;28;20768;-71
2023/08/22 02:01:30;;;;;;;6.82;2.08;;;21.90;99.90;;;;;;4971506;28;20187;-71
2023/08/22 02:04:01;;;;;;;4.90;1.70;;;21.60;99.90;;;;;;4973284;28;20220;-71
2023/08/22 02:06:27;;;;;;;7.70;2.10;;;21.70;99.90;;;;;;4967555;28;20211;-71
2023/08/22 02:08:52;;;;;;;3.60;2.00;;;21.60;99.90;;;;;;4968561;28;20217;-72
2023/08/22 02:11:18;;;;;;;9.85;2.40;;;21.70;99.90;;;;;;4964023;28;20225;-71
2023/08/22 02:13:44;;;;;;;7.43;2.13;;;21.60;99.90;;;;;;4966624;28;20214;-71
2023/08/22 02:16:10;;;;;;;7.50;1.92;;;21.40;99.90;;;;;;4970816;28;20174;-71
2023/08/22 02:18:35;;;;;;;6.28;2.10;;;21.50;99.90;;;;;;4963997;28;20769;-71
2023/08/22 02:21:01;;;;;;;7.32;1.90;;;21.50;99.90;;;;;;4969123;28;20214;-72
2023/08/22 02:23:26;;;;;;;5.22;2.05;;;21.60;99.90;;;;;;4962423;28;20302;-72
2023/08/22 02:25:52;;;;;;;9.63;2.60;;;21.60;99.90;;;;;;4981032;28;20210;-73
2023/08/22 02:28:18;;;;;;;6.95;2.50;;;21.70;99.90;;;;;;4973430;28;20227;-72
2023/08/22 02:30:43;;;;;;;6.78;2.38;;;21.70;99.90;;;;;;4967851;28;20186;-72
2023/08/22 02:33:09;;;;;;;7.05;2.40;;;21.70;99.90;;;;;;4972396;28;20592;-71
2023/08/22 02:35:34;;;;;;;6.30;2.28;;;21.70;99.90;;;;;;4972748;28;20211;-72
2023/08/22 02:38:00;;;;;;;4.93;1.85;;;21.70;99.90;;;;;;4965648;28;20217;-72
2023/08/22 02:40:25;;;;;;;5.00;2.10;;;21.70;99.90;;;;;;4965759;28;20728;-72
2023/08/22 02:42:52;;;;;;;3.55;1.90;;;21.70;99.90;;;;;;4967637;28;20182;-72
2023/08/22 02:45:18;;;;;;;5.53;1.92;;;21.60;99.90;;;;;;4964483;28;20210;-72
2023/08/22 02:47:43;;;;;;;7.05;2.10;;;21.70;99.90;;;;;;4965315;28;20564;-72
2023/08/22 02:50:09;;;;;;;6.03;1.92;;;21.60;99.90;;;;;;4964418;28;20210;-72
2023/08/22 02:52:35;;;;;;;11.15;2.80;;;21.40;99.90;;;;;;4963481;28;20211;-73
2023/08/22 02:55:01;;;;;;;4.68;2.00;;;21.40;99.90;;;;;;4963809;28;20201;-72
2023/08/22 02:57:26;;;;;;;6.28;2.53;;;21.60;99.90;;;;;;4961111;28;20597;-72
2023/08/22 02:59:52;;;;;;;3.35;2.10;;;21.40;99.90;;;;;;4963384;28;20700;-72
2023/08/22 03:02:18;;;;;;;4.82;2.10;;;21.40;99.90;;;;;;4971163;28;20210;-72
2023/08/22 03:04:44;;;;;;;5.72;1.83;;;21.40;99.90;;;;;;4969030;28;20214;-71
2023/08/22 03:07:10;;;;;;;6.60;2.00;;;21.50;99.90;;;;;;4970262;28;20646;-72
2023/08/22 03:09:38;;;;;;;4.30;1.70;;;21.50;99.90;;;;;;4968431;28;20273;-72
2023/08/22 03:12:04;;;;;;;6.22;1.90;;;21.70;99.90;;;;;;4969993;28;20221;-72
2023/08/22 03:14:30;;;;;;;5.13;2.33;;;21.50;99.90;;;;;;4965893;28;20217;-72
2023/08/22 03:16:55;;;;;;;6.85;2.00;;;21.50;99.90;;;;;;4967849;28;20202;-72
2023/08/22 03:19:21;;;;;;;8.23;2.15;;;21.60;99.90;;;;;;4965310;28;20183;-71
2023/08/22 03:21:47;;;;;;;6.60;2.25;;;21.50;99.90;;;;;;4969957;28;20179;-71
2023/08/22 03:24:12;;;;;;;6.28;2.08;;;21.60;99.90;;;;;;4964747;28;20218;-71
2023/08/22 03:26:38;;;;;;;5.82;2.33;;;21.60;99.90;;;;;;4963845;28;20649;-70
2023/08/22 03:29:03;;;;;;;3.78;1.83;;;21.50;99.90;;;;;;4964418;28;20229;-71
2023/08/22 03:31:29;;;;;;;6.57;1.85;;;21.60;99.90;;;;;;4962381;28;20191;-71
2023/08/22 03:33:55;;;;;;;5.63;1.90;;;21.50;99.90;;;;;;4967560;28;20843;-71
2023/08/22 03:36:21;;;;;;;5.85;2.00;;;21.50;99.90;;;;;;4962775;28;20297;-71
2023/08/22 03:38:50;;;;;;;7.60;2.22;;;21.40;99.90;;;;;;4972658;28;20603;-71
2023/08/22 03:41:17;;;;;;;5.05;1.80;;;21.50;99.90;;;;;;4974043;28;20702;-71
2023/08/22 03:43:42;;;;;;;4.95;1.73;;;21.50;99.90;;;;;;4972295;28;20238;-71
2023/08/22 03:46:08;;;;;;;3.97;1.98;;;21.50;99.90;;;;;;4973292;28;20191;-72
2023/08/22 03:48:33;;;;;;;5.72;2.30;;;21.50;99.90;;;;;;4968977;28;20274;-71
2023/08/22 03:50:59;;;;;;;4.95;1.90;;;21.60;99.90;;;;;;4971438;28;20749;-71
2023/08/22 03:53:25;;;;;;;4.07;2.20;;;21.50;99.90;;;;;;4969290;28;20214;-71
2023/08/22 03:55:51;;;;;;;5.15;2.08;;;21.40;99.90;;;;;;4969097;28;20425;-71
2023/08/22 03:58:16;;;;;;;4.15;2.25;;;21.30;99.90;;;;;;4968839;28;20601;-71
2023/08/22 04:00:42;;;;;;;6.75;1.73;;;21.20;99.90;;;;;;4967962;28;20191;-71
2023/08/22 04:03:08;;;;;;;4.85;2.00;;;21.20;99.90;;;;;;4968372;28;20213;-72
2023/08/22 04:05:33;;;;;;;5.03;1.92;;;21.30;99.90;;;;;;4965075;28;20229;-72
2023/08/22 04:07:59;;;;;;;6.28;2.05;;;21.30;99.90;;;;;;4970528;28;20210;-72
2023/08/22 04:10:24;;;;;;;5.18;1.77;;;21.30;99.90;;;;;;4962629;28;20186;-72
2023/08/22 04:12:50;;;;;;;4.68;2.10;;;21.20;99.90;;;;;;4972575;28;20669;-71
2023/08/22 04:15:16;;;;;;;4.28;1.65;;;21.20;99.90;;;;;;4973475;28;20213;-71
2023/08/22 04:17:41;;;;;;;4.18;2.15;;;21.20;99.90;;;;;;4972404;28;20214;-71
2023/08/22 04:20:10;;;;;;;2.83;1.70;;;21.30;99.90;;;;;;4972440;28;20317;-72
2023/08/22 04:22:36;;;;;;;4.00;2.08;;;21.40;99.90;;;;;;4970754;28;20768;-72
2023/08/22 04:25:02;;;;;;;9.02;2.15;;;21.40;99.90;;;;;;4971356;28;20257;-72
2023/08/22 04:27:28;;;;;;;4.20;2.58;;;21.40;99.90;;;;;;4969735;28;20655;-72
2023/08/22 04:29:54;;;;;;;7.72;3.20;;;21.40;99.90;;;;;;4969422;28;20292;-72
2023/08/22 04:32:19;;;;;;;3.72;2.13;;;21.30;99.90;;;;;;4969097;28;20301;-72
2023/08/22 04:34:45;;;;;;;5.22;3.40;;;21.40;99.90;;;;;;4966517;28;20234;-72
2023/08/22 04:37:11;;;;;;;6.85;2.65;;;21.50;99.90;;;;;;4969454;28;20265;-72
2023/08/22 04:39:36;;;;;;;2.85;1.45;;;21.50;99.90;;;;;;4969179;28;20234;-72
2023/08/22 04:42:02;;;;;;;6.18;2.50;;;21.40;99.90;;;;;;4968830;28;20864;-72
2023/08/22 04:44:27;;;;;;;4.00;1.83;;;21.50;99.90;;;;;;4963513;28;20215;-72
2023/08/22 04:46:53;;;;;;;6.95;3.20;;;21.50;99.90;;;;;;4970230;28;20245;-72
2023/08/22 04:49:18;;;;;;;7.10;2.47;;;21.50;99.90;;;;;;4967174;28;20198;-72
2023/08/22 04:51:44;;;;;;;4.63;1.60;;;21.70;99.90;;;;;;4971648;28;20179;-71
2023/08/22 04:54:11;;;;;;;5.72;1.88;;;21.60;99.90;;;;;;4971745;28;20218;-72
2023/08/22 04:56:36;;;;;;;8.10;2.00;;;21.50;99.90;;;;;;4971391;28;20210;-71
2023/08/22 04:59:02;;;;;;;4.03;1.40;;;21.50;99.90;;;;;;4971183;28;20632;-72
2023/08/22 05:01:27;;;;;;;7.45;3.45;;;21.50;99.90;;;;;;4971824;28;20182;-72
2023/08/22 05:03:53;;;;;;;3.08;1.60;;;21.60;99.90;;;;;;4969584;28;20218;-72
2023/08/22 05:06:19;;;;;;;3.00;1.50;;;21.70;99.90;;;;;;4969942;28;20202;-71
2023/08/22 05:08:44;;;;;;;3.15;1.88;;;21.80;99.90;;;;;;4966758;28;20306;-72
2023/08/22 05:11:10;;;;;;;3.58;1.83;;;21.70;99.90;;;;;;4968882;28;20341;-72
2023/08/22 05:13:35;;;;;;;5.78;2.58;;;21.70;99.90;;;;;;4965148;28;20219;-70
2023/08/22 05:16:01;;;;;;;4.47;2.38;;;21.80;99.90;;;;;;4966604;28;20616;-72
2023/08/22 05:18:26;;;;;;;3.97;1.65;;;21.90;99.90;;;;;;4965308;28;20214;-72
2023/08/22 05:20:52;;;;;;;5.72;2.33;;;21.90;99.90;;;;;;4965228;28;20211;-72
2023/08/22 05:23:18;;;;;;;3.28;2.05;;;21.90;99.90;;;;;;4964386;28;20210;-72
2023/08/22 05:25:43;;;;;;;5.78;2.63;;;21.90;99.90;;;;;;4962377;28;20221;-72
2023/08/22 05:28:09;;;;;;;6.20;2.08;;;22.00;99.90;;;;;;4971840;28;20683;-72
2023/08/22 05:30:38;;;;;;;5.75;1.83;;;22.10;99.90;;;;;;4973119;28;20209;-72
2023/08/22 05:33:04;;;;;;;4.55;1.95;;;22.10;99.90;;;;;;4968074;28;20216;-73
2023/08/22 05:35:30;;;;;;;2.75;1.55;;;22.30;99.90;;;;;;4971253;28;20213;-72
2023/08/22 05:37:55;;;;;;;3.33;1.35;;;22.60;99.90;;;;;;4968949;28;20298;-72
2023/08/22 05:40:21;;;;;;;4.80;1.85;;;22.60;99.90;;;;;;4971216;28;20591;-73
2023/08/22 05:42:46;;;;;;;7.57;2.30;;;22.40;99.90;;;;;;4969976;28;20230;-72
2023/08/22 05:45:12;;;;;;;4.95;2.10;;;22.50;99.90;;;;;;4967999;28;20293;-72
2023/08/22 05:47:38;;;;;;;4.90;1.92;;;22.60;99.90;;;;;;4965830;28;20210;-71
2023/08/22 05:50:04;;;;;;;4.95;1.60;;;22.80;99.90;;;;;;4963228;28;20341;-72
2023/08/22 05:52:30;;;;;;;7.05;3.75;;;23.10;99.90;;;;;;4965413;28;20273;-73
2023/08/22 05:54:56;;;;;;;7.00;1.85;;;23.50;99.90;;;;;;4964551;28;20210;-72
2023/08/22 05:57:22;;;;;;;5.03;2.08;;;23.20;99.90;;;;;;4970072;28;20284;-72
2023/08/22 05:59:49;;;;;;;5.60;1.63;;;22.80;99.90;;;;;;4962735;28;20207;-72
2023/08/22 06:02:15;;;;;;;2.67;1.48;;;22.60;99.90;;;;;;4970428;28;20214;-73
2023/08/22 06:04:40;;;;;;;4.85;1.83;;;22.40;99.90;;;;;;4967885;28;20280;-71
2023/08/22 06:07:06;;;;;;;5.78;2.10;;;22.10;99.90;;;;;;4971890;28;20903;-72
2023/08/22 06:09:32;;;;;;;5.88;1.95;;;22.10;99.90;;;;;;4967220;28;20255;-72
2023/08/22 06:11:57;;;;;;;6.85;1.92;;;22.10;99.90;;;;;;4969121;28;20218;-72
2023/08/22 06:14:23;;;;;;;5.03;1.77;;;22.00;99.90;;;;;;4969202;28;20325;-73
2023/08/22 06:16:48;;;;;;;4.60;1.95;;;21.90;99.90;;;;;;4967325;28;20210;-72
2023/08/22 06:19:14;;;;;;;4.15;1.80;;;22.10;99.90;;;;;;4963777;28;20213;-73
2023/08/22 06:21:39;;;;;;;4.75;1.70;;;22.30;99.90;;;;;;4966699;28;20186;-72
2023/08/22 06:24:06;;;;;;;6.25;1.83;;;22.40;99.90;;;;;;4966266;28;20697;-73
2023/08/22 06:26:31;;;;;;;6.47;2.13;;;22.70;99.90;;;;;;4965660;28;20210;-72
2023/08/22 06:28:58;;;;;;;6.93;2.55;;;22.90;99.90;;;;;;4964231;28;20283;-72
2023/08/22 06:31:23;;;;;;;6.53;3.03;;;23.20;99.90;;;;;;4965311;28;20183;-73
2023/08/22 06:33:49;;;;;;;6.03;2.30;;;23.30;99.90;;;;;;4962158;28;20270;-72
2023/08/22 06:36:15;;;;;;;4.95;2.05;;;23.20;99.90;;;;;;4963363;28;20206;-73
2023/08/22 06:38:40;;;;;;;7.25;2.28;;;23.10;99.90;;;;;;4960558;28;20213;-72
2023/08/22 06:41:07;;;;;;;4.65;2.17;;;23.00;99.90;;;;;;4966805;28;20630;-73
2023/08/22 06:43:33;;;;;;;3.83;1.77;;;23.10;99.90;;;;;;4971203;28;20740;-73
2023/08/22 06:45:59;;;;;;;6.13;1.60;;;24.00;99.90;;;;;;4969866;28;20561;-73
2023/08/22 06:48:26;;;;;;;2.63;1.77;;;24.70;99.90;;;;;;4969904;28;20310;-70
2023/08/22 06:50:52;;;;;;;3.53;1.55;;;26.70;99.90;;;;;;4966435;28;20643;-70
2023/08/22 06:53:18;;;;;;;4.57;1.75;;;28.20;99.90;;;;;;4970152;28;20234;-71
2023/08/22 06:55:47;;;;;;;6.88;1.80;;;28.60;99.90;;;;;;4966316;28;20699;-70
2023/08/22 06:58:13;;;;;;;3.47;1.83;;;26.80;99.90;;;;;;4965985;28;20201;-71
2023/08/22 07:00:39;;;;;;;5.43;1.50;;;26.00;99.90;;;;;;4966696;28;20210;-71
2023/08/22 07:03:05;;;;;;;4.85;2.25;;;25.60;99.90;;;;;;4969965;28;20346;-71
2023/08/22 07:05:30;;;;;;;3.67;1.60;;;25.30;99.90;;;;;;4971259;28;20249;-71
2023/08/22 07:07:56;;;;;;;5.40;2.97;;;24.80;99.90;;;;;;4967665;28;20242;-71
2023/08/22 07:10:22;;;;;;;9.52;2.50;;;24.60;99.90;;;;;;4967865;28;20175;-72
2023/08/22 07:12:48;;;;;;;3.42;2.05;;;24.50;99.90;;;;;;4966183;28;20175;-69
2023/08/22 07:15:13;;;;;;;3.80;1.63;;;25.20;99.90;;;;;;4973829;28;20572;-71
2023/08/22 07:17:39;;;;;;;3.65;1.55;;;25.60;99.90;;;;;;4966715;28;20291;-71
2023/08/22 07:20:05;;;;;;;3.45;1.88;;;25.30;99.90;;;;;;4971709;28;20214;-71
2023/08/22 07:22:33;;;;;;;4.30;1.50;;;25.40;99.90;;;;;;4973875;28;20724;-71
2023/08/22 07:24:58;;;;;;;7.15;1.92;;;24.90;99.90;;;;;;4971914;28;20847;-71
2023/08/22 07:27:24;;;;;;;4.35;1.70;;;24.60;99.90;;;;;;4972592;28;20210;-71
2023/08/22 07:29:50;;;;;;;3.50;1.63;;;24.50;99.90;;;;;;4971519;28;20218;-71
2023/08/22 07:32:18;;;;;;;5.38;1.52;;;24.10;99.90;;;;;;4971209;28;20222;-71
2023/08/22 07:34:45;;;;;;;3.35;1.90;;;24.10;99.90;;;;;;4971566;28;20785;-71
2023/08/22 07:37:11;;;;;;;4.85;1.70;;;24.00;99.90;;;;;;4973436;28;20178;-71
2023/08/22 07:39:37;;;;;;;7.63;2.08;;;24.00;99.90;;;;;;4968574;28;20207;-72
2023/08/22 07:42:04;;;;;;;6.32;1.80;;;23.80;99.90;;;;;;4970208;28;20206;-71
2023/08/22 07:44:30;;;;;;;6.55;1.90;;;23.80;99.90;;;;;;4967571;28;20233;-72
2023/08/22 07:46:56;;;;;;;3.80;1.73;;;23.70;99.90;;;;;;4965302;28;20234;-71
2023/08/22 07:49:22;;;;;;;2.75;1.70;;;23.80;99.90;;;;;;4963684;28;20212;-72
2023/08/22 07:51:48;;;;;;;3.63;1.60;;;24.60;99.90;;;;;;4978862;28;20180;-71
2023/08/22 07:54:13;;;;;;;3.65;1.30;;;25.20;99.90;;;;;;4969041;28;20240;-72
2023/08/22 07:56:39;;;;;;;3.78;1.48;;;25.60;99.90;;;;;;4974288;28;20268;-71
2023/08/22 07:59:05;;;;;;;5.07;2.38;;;25.40;99.90;;;;;;4971979;28;20203;-71
2023/08/22 08:01:31;;;;;;;6.65;3.15;;;25.60;99.90;;;;;;4972488;28;20544;-71
2023/08/22 08:03:56;;;;;;;5.15;1.80;;;25.80;99.90;;;;;;4970782;28;20696;-71
2023/08/22 08:06:22;;;;;;;4.72;1.52;;;25.80;99.90;;;;;;4971438;28;20292;-72
2023/08/22 08:08:48;;;;;;;5.50;2.00;;;26.70;99.90;;;;;;4969705;28;20214;-71
2023/08/22 08:11:13;;;;;;;4.97;3.20;;;26.40;99.90;;;;;;4969484;28;20213;-71
2023/08/22 08:13:39;;;;;;;7.65;3.03;;;26.00;99.90;;;;;;4969181;28;20689;-70
2023/08/22 08:16:06;;;;;;;10.50;3.08;;;25.40;99.90;;;;;;4967565;28;20254;-71
2023/08/22 08:18:32;;;;;;;4.80;1.73;;;24.90;99.90;;;;;;4968856;28;20269;-72
2023/08/22 08:20:58;;;;;;;3.00;1.48;;;24.50;99.90;;;;;;4970819;28;20211;-71
2023/08/22 08:23:23;;;;;;;4.95;1.75;;;24.40;99.90;;;;;;4967367;28;20211;-71
2023/08/22 08:25:49;;;;;;;4.15;2.20;;;24.30;99.90;;;;;;4969513;28;20214;-72
2023/08/22 08:28:15;;;;;;;8.07;4.35;;;24.00;99.90;;;;;;4965387;28;20187;-72
2023/08/22 08:30:40;;;;;;;6.93;2.72;;;24.20;99.90;;;;;;4973025;28;20266;-71
2023/08/22 08:33:07;;;;;;;2.75;1.83;;;24.30;99.90;;;;;;4972789;28;20638;-72
2023/08/22 08:35:33;;;;;;;5.50;2.00;;;24.30;99.90;;;;;;4972206;28;20245;-71
2023/08/22 08:37:59;;;;;;;4.38;2.17;;;24.70;99.90;;;;;;4971240;28;20230;-71
2023/08/22 08:40:30;;;;;;;4.40;1.83;;;25.70;99.90;;;;;;4971512;28;20181;-72
2023/08/22 08:42:59;;;;;;;5.45;1.70;;;26.00;99.90;;;;;;4971662;28;20210;-69
2023/08/22 08:45:26;;;;;;;6.55;1.75;;;25.50;99.90;;;;;;4968203;28;20264;-72
2023/08/22 08:47:52;;;;;;;3.65;2.53;;;25.40;99.90;;;;;;4968023;28;20211;-71
2023/08/22 08:50:19;;;;;;;4.90;2.33;;;25.30;99.90;;;;;;4968428;28;20214;-72
2023/08/22 08:52:45;;;;;;;6.28;2.45;;;25.30;99.90;;;;;;4967898;28;20238;-71
2023/08/22 08:55:11;;;;;;;3.00;2.17;;;25.30;99.90;;;;;;4964932;28;20736;-71
2023/08/22 08:57:36;;;;;;;6.93;2.35;;;25.20;99.90;;;;;;4967442;28;20251;-71
2023/08/22 09:00:02;;;;;;;4.22;2.00;;;25.40;99.90;;;;;;4963794;28;20608;-71
2023/08/22 09:02:28;;;;;;;4.53;1.77;;;25.30;99.90;;;;;;4972242;28;20218;-71
2023/08/22 09:04:54;;;;;;;6.82;2.10;;;25.60;99.90;;;;;;4962996;28;20277;-72
2023/08/22 09:07:20;;;;;;;5.78;2.08;;;26.60;99.90;;;;;;4968984;28;20183;-72
2023/08/22 09:09:46;;;;;;;5.07;1.80;;;27.60;99.90;;;;;;4972953;28;20237;-72
2023/08/22 09:12:13;;;;;;;3.45;2.03;;;28.10;99.90;;;;;;4971473;28;20214;-72
2023/08/22 09:14:47;;;;;;;5.22;2.00;;;28.90;99.90;;;;;;4970964;28;20581;-72
2023/08/22 09:17:14;;;;;;;5.80;2.80;;;29.20;99.90;;;;;;4970900;28;20213;-72
2023/08/22 09:19:40;;;;;;;4.13;2.38;;;29.50;99.90;;;;;;4971647;28;20707;-71
2023/08/22 09:22:05;;;;;;;4.45;2.08;;;29.60;99.90;;;;;;4967095;28;20261;-72
2023/08/22 09:24:32;;;;;;;8.52;2.30;;;28.50;99.90;;;;;;4968843;28;20697;-72
2023/08/22 09:27:03;;;;;;;5.00;1.90;;;28.60;99.90;;;;;;4966792;28;20206;-72
2023/08/22 09:29:30;;;;;;;4.30;1.77;;;28.20;99.90;;;;;;4966925;28;20636;-72
2023/08/22 09:32:05;;;;;;;5.80;2.03;;;27.80;99.90;;;;;;4964107;28;20598;-72
2023/08/22 09:34:32;;;;;;;3.90;1.92;;;27.00;99.90;;;;;;4966134;28;20238;-72
2023/08/22 09:36:57;;;;;;;6.18;1.83;;;27.20;99.90;;;;;;4964198;28;20183;-72
2023/08/22 09:39:24;;;;;;;4.88;2.08;;;26.80;99.90;;;;;;4965305;28;20553;-72
2023/08/22 09:41:56;;;;;;;7.68;2.20;;;26.60;99.90;;;;;;4967682;28;20213;-72
2023/08/22 09:44:23;;;;;;;6.28;2.17;;;26.90;99.90;;;;;;4966935;28;20713;-72
2023/08/22 09:46:51;;;;;;;5.60;1.92;;;27.10;99.90;;;;;;4971599;28;20832;-72
2023/08/22 09:49:17;;;;;;;5.88;2.22;;;27.60;99.90;;;;;;4970015;28;20203;-71
2023/08/22 09:51:45;;;;;;;4.88;2.17;;;27.40;99.90;;;;;;4971509;28;20209;-72
2023/08/22 09:54:11;;;;;;;4.75;1.80;;;27.50;99.90;;;;;;4967206;28;20218;-72
2023/08/22 09:56:37;;;;;;;6.15;3.10;;;27.00;99.90;;;;;;4971111;28;20209;-72
2023/08/22 09:59:03;;;;;;;5.70;2.80;;;26.80;99.90;;;;;;4967361;28;20249;-70
2023/08/22 10:01:32;;;;;;;5.32;2.00;;;26.80;99.90;;;;;;4968447;28;20206;-72
2023/08/22 10:04:00;;;;;;;5.35;2.38;;;26.60;99.90;;;;;;4969649;28;20186;-72
2023/08/22 10:06:30;;;;;;;12.07;2.40;;;26.60;99.90;;;;;;4966563;28;20213;-73
2023/08/22 10:08:56;;;;;;;7.72;2.30;;;26.70;99.90;;;;;;4964995;28;20206;-72
2023/08/22 10:11:23;;;;;;;5.05;1.95;;;26.50;99.90;;;;;;4970089;28;20262;-74
2023/08/22 10:13:50;;;;;;;6.53;1.83;;;26.30;99.90;;;;;;4969705;28;20301;-74
2023/08/22 10:16:15;;;;;;;3.85;2.08;;;26.10;99.90;;;;;;4963208;28;20627;-72
2023/08/22 10:18:41;;;;;;;7.65;2.20;;;26.10;99.90;;;;;;4970695;28;20186;-72
2023/08/22 10:21:07;;;;;;;6.18;2.72;;;26.50;99.90;;;;;;4970057;28;20235;-72
2023/08/22 10:23:54;;;;;;;8.93;2.60;;;26.90;99.90;;;;;;4971224;28;20218;-72
2023/08/22 10:26:20;;;;;;;7.38;4.05;;;27.30;99.90;;;;;;4968742;28;20555;-72
2023/08/22 10:29:18;;;;;;;5.43;2.00;;;27.20;99.90;;;;;;4970156;28;20218;-72
2023/08/22 10:32:02;;;;;;;7.38;2.50;;;27.40;99.90;;;;;;4969681;28;20214;-72
2023/08/22 10:34:34;;;;;;;8.23;2.25;;;27.30;99.90;;;;;;4967712;28;20217;-73
2023/08/22 10:37:01;;;;;;;6.72;2.67;;;27.60;99.90;;;;;;4968179;28;20182;-72
2023/08/22 10:39:35;;;;;;;5.50;2.30;;;27.80;99.90;;;;;;4967103;28;20215;-72
2023/08/22 10:42:00;;;;;;;4.45;2.30;;;28.20;99.90;;;;;;4967028;28;20230;-73
2023/08/22 10:44:30;;;;;;;6.85;2.42;;;28.50;99.90;;;;;;4965908;28;20239;-72
2023/08/22 10:47:03;;;;;;;5.57;2.50;;;28.20;99.90;;;;;;4965837;28;20293;-72
2023/08/22 10:49:34;;;;;;;3.47;1.77;;;28.10;99.90;;;;;;4964965;28;20194;-73
2023/08/22 10:52:07;;;;;;;8.88;4.82;;;28.20;99.90;;;;;;4963036;28;20241;-72
2023/08/22 10:54:53;;;;;;;6.63;2.55;;;28.40;99.90;;;;;;4963555;28;20206;-72
2023/08/22 10:57:19;;;;;;;7.45;2.95;;;28.40;99.90;;;;;;4961730;28;20210;-72
2023/08/22 11:00:21;;;;;;;8.57;2.80;;;28.40;99.90;;;;;;4970905;28;20213;-72
2023/08/22 11:02:56;;;;;;;4.05;2.42;;;28.70;99.90;;;;;;4970110;28;20206;-72
2023/08/22 11:05:22;;;;;;;7.75;2.92;;;28.20;99.90;;;;;;4967044;28;20329;-73
2023/08/22 11:07:48;;;;;;;4.97;2.28;;;28.40;99.90;;;;;;4969249;28;20689;-72
2023/08/22 11:10:16;;;;;;;5.90;2.45;;;28.40;99.90;;;;;;4967076;28;20705;-73
2023/08/22 11:12:45;;;;;;;5.85;2.20;;;28.10;99.90;;;;;;4968788;28;20174;-72
2023/08/22 11:15:12;;;;;;;3.72;2.00;;;28.30;99.90;;;;;;4964865;28;20221;-71
2023/08/22 11:17:40;;;;;;;5.35;2.10;;;28.50;99.90;;;;;;4967184;28;20210;-72
2023/08/22 11:20:10;;;;;;;2.97;1.73;;;28.30;99.90;;;;;;4964626;28;20206;-72
2023/08/22 11:22:36;;;;;;;7.97;2.28;;;28.20;99.90;;;;;;4970103;28;20836;-72
2023/08/22 11:25:04;;;;;;;4.93;2.00;;;28.00;99.90;;;;;;4963660;28;20206;-72
2023/08/22 11:27:30;;;;;;;8.05;2.53;;;28.00;99.90;;;;;;4963966;28;20208;-72
2023/08/22 11:29:55;;;;;;;9.23;2.47;;;28.10;99.90;;;;;;4962532;28;20260;-71
2023/08/22 11:32:29;;;;;;;7.40;2.30;;;28.20;99.90;;;;;;4961655;28;20218;-72
2023/08/22 11:35:03;;;;;;;7.53;1.95;;;28.30;99.90;;;;;;4962908;28;20222;-72
2023/08/22 11:37:34;;;;;;;2.78;1.88;;;28.60;99.90;;;;;;4969779;28;20206;-73
2023/08/22 11:40:01;;;;;;;3.97;1.60;;;28.70;99.90;;;;;;4970515;28;20265;-72
2023/08/22 11:42:31;;;;;;;5.55;1.80;;;28.50;99.90;;;;;;4968451;28;20207;-72
2023/08/22 11:45:10;;;;;;;3.75;1.80;;;28.40;99.90;;;;;;4968820;28;20256;-71
2023/08/22 11:47:49;;;;;;;6.60;1.98;;;28.60;99.90;;;;;;4968147;28;20210;-70
2023/08/22 11:50:29;;;;;;;5.03;2.00;;;28.70;99.90;;;;;;4965688;28;20317;-71
2023/08/22 11:52:58;;;;;;;9.55;2.10;;;28.30;99.90;;;;;;4962529;28;20226;-72
2023/08/22 11:55:25;;;;;;;6.95;2.67;;;28.40;99.90;;;;;;4967585;28;20210;-72
2023/08/22 11:57:54;;;;;;;3.67;2.00;;;28.70;99.90;;;;;;4968835;28;20178;-72
2023/08/22 12:00:20;;;;;;;7.93;2.50;;;28.70;99.90;;;;;;4966093;28;20702;-72
2023/08/22 12:02:53;;;;;;;6.97;2.30;;;28.50;99.90;;;;;;4973361;28;20218;-72
2023/08/22 12:05:35;;;;;;;5.45;2.58;;;28.60;99.90;;;;;;4964346;28;20225;-73
2023/08/22 12:08:10;;;;;;;3.90;1.85;;;28.90;99.90;;;;;;4965481;28;20202;-72
2023/08/22 12:10:42;;;;;;;5.82;3.05;;;28.80;99.90;;;;;;4965800;28;20210;-73
2023/08/22 12:13:09;;;;;;;11.15;6.05;;;28.80;99.90;;;;;;4970899;28;20185;-72
2023/08/22 12:15:35;;;;;;;9.13;6.60;;;29.00;99.90;;;;;;4972374;28;20214;-72
2023/08/22 12:18:02;;;;;;;7.72;3.42;;;29.20;99.90;;;;;;4972857;28;20579;-72
2023/08/22 12:20:28;;;;;;;10.25;3.45;;;29.50;99.90;;;;;;4969717;28;20265;-72
2023/08/22 12:22:54;;;;;;;3.50;2.50;;;29.30;99.90;;;;;;4970595;28;20214;-72
2023/08/22 12:25:20;;;;;;;3.80;2.08;;;29.10;99.90;;;;;;4968977;28;20598;-72
2023/08/22 12:27:45;;;;;;;5.57;2.50;;;28.90;99.90;;;;;;4976234;28;20241;-70
2023/08/22 12:30:11;;;;;;;3.40;2.40;;;28.70;99.90;;;;;;4968536;28;20234;-71
2023/08/22 12:32:37;;;;;;;4.43;2.05;;;28.20;99.90;;;;;;4971826;28;20222;-71
2023/08/22 12:35:05;;;;;;;5.88;2.03;;;27.90;99.90;;;;;;4967582;28;20264;-73
2023/08/22 12:37:31;;;;;;;10.23;3.08;;;27.90;99.90;;;;;;4966948;28;20187;-71
2023/08/22 12:39:57;;;;;;;8.85;4.07;;;28.00;99.90;;;;;;4967761;28;20175;-71
2023/08/22 12:42:22;;;;;;;10.52;5.03;;;28.00;99.90;;;;;;4972568;28;20214;-70
2023/08/22 12:44:48;;;;;;;26.98;17.17;;;28.00;99.90;;;;;;4964778;28;20210;-72